createdAt,value
2023-05-27T00:19:41.655Z,12.31
2023-05-27T00:49:41.665Z,11.88
2023-05-27T01:19:41.665Z,11.56
2023-05-27T01:49:41.678Z,11
2023-05-27T02:19:41.672Z,10.5
2023-05-27T02:49:41.673Z,10.31
2023-05-27T03:19:41.675Z,10.31
2023-05-27T03:49:41.722Z,10.25
2023-05-27T04:19:41.686Z,10.25
2023-05-27T04:49:41.693Z,10.31
2023-05-27T05:19:41.708Z,11.19
2023-05-27T05:49:41.706Z,12.19
2023-05-27T06:19:41.710Z,13.06
2023-05-27T06:49:41.710Z,13.88
2023-05-27T07:19:41.730Z,14.63
2023-05-27T07:49:43.097Z,15.38
2023-05-27T08:19:41.733Z,16.13
2023-05-27T08:49:41.734Z,16.88
2023-05-27T09:19:41.737Z,17.44
2023-05-27T09:49:41.740Z,18.19
2023-05-27T10:19:41.745Z,18.94
2023-05-27T10:49:41.761Z,19.25
2023-05-27T11:19:41.761Z,19.94
2023-05-27T11:49:41.767Z,21.25
2023-05-27T12:19:41.774Z,23.13
2023-05-27T12:49:41.760Z,24.69
2023-05-27T13:19:41.756Z,26.88
2023-05-27T13:49:41.778Z,27.88
2023-05-27T14:19:41.773Z,27.38
2023-05-27T14:49:41.805Z,25.63
2023-05-27T15:19:41.804Z,25.94
2023-05-27T15:49:41.801Z,25.5
2023-05-27T16:19:41.829Z,27.75
2023-05-27T16:49:41.810Z,25.75
2023-05-27T17:19:41.820Z,29.31
2023-05-27T17:49:41.824Z,29
2023-05-27T18:19:41.821Z,24.31
2023-05-27T18:49:41.847Z,21.56
2023-05-27T19:19:41.833Z,19.75
2023-05-27T19:49:41.831Z,18.31
2023-05-27T20:19:41.847Z,17.13
2023-05-27T20:49:41.845Z,15.56
2023-05-27T21:19:41.844Z,14.5
2023-05-27T21:49:41.857Z,13.69
2023-05-27T22:19:41.841Z,13
2023-05-27T22:49:41.868Z,12.56
2023-05-27T23:19:41.867Z,11.75
2023-05-27T23:49:41.858Z,11.19
